DAL2119 KMSP-KLAX
Flight info
| Callsign | DAL2119 |
|---|---|
| Flight time | 3h 2m |
| Altitude | 36000 |
| Route | SCHEP1 RXANN TEYOU LLUKY BFF KD63U KU51Q PROMT Q88 HAKMN ANJLL4 |
| Aircraft | A321/M-SDE3FGHIRWY/LB1 |
Departure
| Time | 2026-04-21 19:00 |
|---|---|
| Airport | Minneapolis–Saint Paul International Airport / Wold–Chamberlain Field (KMSP) |
Arrival
| Time | 2026-04-21 22:03 |
|---|---|
| Airport | Los Angeles International Airport (KLAX) |
| Time | Latitude | Longitude | Altitude | Speed | Heading |
|---|---|---|---|---|---|
| 2026-04-21 18:44 | 44.87908 | -93.20710 | 823 ft | 0 kts | 32° |
| 2026-04-21 18:51 | 44.87907 | -93.20710 | 823 ft | 1 kts | 32° |
| 2026-04-21 18:51 | 44.87887 | -93.20728 | 823 ft | 4 kts | 32° |
| 2026-04-21 18:52 | 44.87864 | -93.20748 | 824 ft | 4 kts | 32° |
| 2026-04-21 18:52 | 44.87854 | -93.20757 | 823 ft | 0 kts | 32° |
| 2026-04-21 18:55 | 44.87855 | -93.20755 | 823 ft | 1 kts | 43° |
| 2026-04-21 18:55 | 44.87841 | -93.20722 | 823 ft | 6 kts | 137° |
| 2026-04-21 18:55 | 44.87779 | -93.20632 | 826 ft | 16 kts | 121° |
| 2026-04-21 18:55 | 44.87724 | -93.20503 | 825 ft | 15 kts | 122° |
| 2026-04-21 18:56 | 44.87650 | -93.20334 | 823 ft | 25 kts | 122° |
| 2026-04-21 18:56 | 44.87569 | -93.20148 | 822 ft | 13 kts | 121° |
| 2026-04-21 18:56 | 44.87535 | -93.20068 | 823 ft | 8 kts | 121° |
| 2026-04-21 18:56 | 44.87500 | -93.20025 | 826 ft | 6 kts | 165° |
| 2026-04-21 18:57 | 44.87472 | -93.20036 | 826 ft | 3 kts | 212° |
| 2026-04-21 18:57 | 44.87463 | -93.20043 | 823 ft | 0 kts | 212° |
| 2026-04-21 18:58 | 44.87440 | -93.20064 | 827 ft | 8 kts | 211° |
| 2026-04-21 18:59 | 44.87379 | -93.20118 | 825 ft | 11 kts | 219° |
| 2026-04-21 18:59 | 44.87389 | -93.20199 | 824 ft | 11 kts | 301° |
| 2026-04-21 18:59 | 44.87479 | -93.20412 | 825 ft | 53 kts | 301° |
| 2026-04-21 18:59 | 44.87790 | -93.21129 | 827 ft | 116 kts | 301° |
| 2026-04-21 19:00 | 44.88302 | -93.22313 | 827 ft | 164 kts | 301° |
| 2026-04-21 19:00 | 44.88948 | -93.23785 | 1176 ft | 177 kts | 304° |
| 2026-04-21 19:00 | 44.89488 | -93.25344 | 1855 ft | 182 kts | 282° |
| 2026-04-21 19:00 | 44.89551 | -93.27118 | 2534 ft | 182 kts | 273° |
| 2026-04-21 19:01 | 44.89513 | -93.28935 | 3029 ft | 192 kts | 271° |
| 2026-04-21 19:01 | 44.89451 | -93.30908 | 3191 ft | 211 kts | 270° |
| 2026-04-21 19:01 | 44.89286 | -93.33058 | 3314 ft | 234 kts | 254° |
| 2026-04-21 19:01 | 44.88368 | -93.35056 | 3699 ft | 250 kts | 230° |
| 2026-04-21 19:02 | 44.87222 | -93.36904 | 4477 ft | 250 kts | 231° |
| 2026-04-21 19:02 | 44.86092 | -93.38768 | 5246 ft | 250 kts | 232° |
| 2026-04-21 19:02 | 44.84962 | -93.40639 | 6068 ft | 250 kts | 232° |
| 2026-04-21 19:02 | 44.83833 | -93.42505 | 6837 ft | 251 kts | 233° |
| 2026-04-21 19:03 | 44.82699 | -93.44377 | 7546 ft | 252 kts | 233° |
| 2026-04-21 19:03 | 44.81556 | -93.46261 | 8285 ft | 254 kts | 233° |
| 2026-04-21 19:03 | 44.80402 | -93.48157 | 8984 ft | 256 kts | 234° |
| 2026-04-21 19:03 | 44.79240 | -93.50071 | 9687 ft | 258 kts | 234° |
| 2026-04-21 19:04 | 44.78054 | -93.52023 | 10323 ft | 260 kts | 234° |
| 2026-04-21 19:04 | 44.76866 | -93.53975 | 10884 ft | 267 kts | 234° |
| 2026-04-21 19:04 | 44.75613 | -93.56046 | 11039 ft | 289 kts | 234° |
| 2026-04-21 19:04 | 44.74260 | -93.58284 | 11172 ft | 311 kts | 234° |
| 2026-04-21 19:05 | 44.72810 | -93.60674 | 11359 ft | 330 kts | 233° |
| 2026-04-21 19:05 | 44.71297 | -93.63150 | 11841 ft | 337 kts | 233° |
| 2026-04-21 19:05 | 44.69754 | -93.65664 | 12421 ft | 341 kts | 233° |
| 2026-04-21 19:05 | 44.68198 | -93.68197 | 13071 ft | 344 kts | 233° |
| 2026-04-21 19:06 | 44.66626 | -93.70754 | 13671 ft | 348 kts | 233° |
| 2026-04-21 19:06 | 44.65038 | -93.73338 | 14213 ft | 351 kts | 233° |
| 2026-04-21 19:06 | 44.63433 | -93.75945 | 14778 ft | 354 kts | 233° |
| 2026-04-21 19:06 | 44.61816 | -93.78570 | 15353 ft | 357 kts | 233° |
| 2026-04-21 19:07 | 44.60187 | -93.81215 | 15908 ft | 360 kts | 234° |
| 2026-04-21 19:07 | 44.58545 | -93.83886 | 16444 ft | 363 kts | 234° |
| 2026-04-21 19:07 | 44.56953 | -93.86642 | 16991 ft | 364 kts | 237° |
| 2026-04-21 19:07 | 44.55432 | -93.89495 | 17533 ft | 366 kts | 238° |
| 2026-04-21 19:08 | 44.53940 | -93.92405 | 18063 ft | 369 kts | 239° |
| 2026-04-21 19:08 | 44.52451 | -93.95345 | 18544 ft | 371 kts | 239° |
| 2026-04-21 19:08 | 44.50949 | -93.98301 | 19001 ft | 374 kts | 239° |
| 2026-04-21 19:08 | 44.49423 | -94.01266 | 19451 ft | 377 kts | 238° |
| 2026-04-21 19:09 | 44.47874 | -94.04240 | 19908 ft | 379 kts | 238° |
| 2026-04-21 19:09 | 44.46305 | -94.07224 | 20348 ft | 382 kts | 238° |
| 2026-04-21 19:09 | 44.44721 | -94.10223 | 20790 ft | 384 kts | 238° |
| 2026-04-21 19:09 | 44.43127 | -94.13235 | 21229 ft | 387 kts | 238° |
| 2026-04-21 19:10 | 44.41523 | -94.16269 | 21666 ft | 389 kts | 238° |
| 2026-04-21 19:10 | 44.39910 | -94.19316 | 22097 ft | 391 kts | 238° |
| 2026-04-21 19:10 | 44.38833 | -94.21347 | 22369 ft | 393 kts | 238° |
| 2026-04-21 19:10 | 44.37200 | -94.24423 | 22800 ft | 395 kts | 238° |
| 2026-04-21 19:11 | 44.35555 | -94.27514 | 23226 ft | 397 kts | 238° |
| 2026-04-21 19:11 | 44.33907 | -94.30620 | 23611 ft | 399 kts | 238° |
| 2026-04-21 19:11 | 44.32249 | -94.33748 | 23949 ft | 402 kts | 238° |
| 2026-04-21 19:11 | 44.30583 | -94.36890 | 24284 ft | 404 kts | 238° |
| 2026-04-21 19:12 | 44.28907 | -94.40049 | 24619 ft | 406 kts | 238° |
| 2026-04-21 19:12 | 44.27217 | -94.43220 | 24958 ft | 408 kts | 238° |
| 2026-04-21 19:12 | 44.25516 | -94.46405 | 25276 ft | 410 kts | 238° |
| 2026-04-21 19:12 | 44.23806 | -94.49607 | 25603 ft | 413 kts | 238° |
| 2026-04-21 19:13 | 44.22090 | -94.52820 | 25925 ft | 415 kts | 238° |
| 2026-04-21 19:13 | 44.20362 | -94.56052 | 26243 ft | 417 kts | 239° |
| 2026-04-21 19:13 | 44.18624 | -94.59301 | 26520 ft | 420 kts | 239° |
| 2026-04-21 19:13 | 44.16850 | -94.62615 | 26804 ft | 422 kts | 239° |
| 2026-04-21 19:14 | 44.15088 | -94.65904 | 27093 ft | 425 kts | 239° |
| 2026-04-21 19:14 | 44.13338 | -94.69164 | 27387 ft | 427 kts | 239° |
| 2026-04-21 19:14 | 44.11552 | -94.72486 | 27652 ft | 430 kts | 239° |
| 2026-04-21 19:14 | 44.09755 | -94.75822 | 27933 ft | 432 kts | 239° |
| 2026-04-21 19:15 | 44.07947 | -94.79173 | 28215 ft | 434 kts | 239° |
| 2026-04-21 19:15 | 44.06126 | -94.82538 | 28494 ft | 436 kts | 239° |
| 2026-04-21 19:15 | 44.04295 | -94.85918 | 28767 ft | 439 kts | 239° |
| 2026-04-21 19:15 | 44.02459 | -94.89311 | 29026 ft | 441 kts | 239° |
| 2026-04-21 19:16 | 44.00609 | -94.92725 | 29286 ft | 443 kts | 239° |
| 2026-04-21 19:16 | 43.98759 | -94.96152 | 29509 ft | 445 kts | 240° |
| 2026-04-21 19:16 | 43.96923 | -94.99630 | 29673 ft | 448 kts | 241° |
| 2026-04-21 19:16 | 43.95098 | -95.03153 | 29882 ft | 451 kts | 241° |
| 2026-04-21 19:17 | 43.91442 | -95.10267 | 30287 ft | 455 kts | 241° |
| 2026-04-21 19:17 | 43.89596 | -95.13842 | 30495 ft | 457 kts | 241° |
| 2026-04-21 19:17 | 43.87736 | -95.17421 | 30713 ft | 459 kts | 241° |
| 2026-04-21 19:18 | 43.85863 | -95.21007 | 30987 ft | 459 kts | 241° |
| 2026-04-21 19:18 | 43.83986 | -95.24588 | 31266 ft | 459 kts | 241° |
| 2026-04-21 19:18 | 43.82106 | -95.28168 | 31536 ft | 460 kts | 241° |
| 2026-04-21 19:18 | 43.80224 | -95.31751 | 31814 ft | 460 kts | 242° |
| 2026-04-21 19:19 | 43.78340 | -95.35331 | 32085 ft | 460 kts | 241° |
| 2026-04-21 19:19 | 43.76454 | -95.38912 | 32374 ft | 460 kts | 241° |
| 2026-04-21 19:19 | 43.74568 | -95.42489 | 32675 ft | 460 kts | 242° |
| 2026-04-21 19:19 | 43.72683 | -95.46059 | 32970 ft | 460 kts | 242° |
| 2026-04-21 19:20 | 43.70793 | -95.49626 | 33263 ft | 460 kts | 242° |
| 2026-04-21 19:20 | 43.68904 | -95.53189 | 33509 ft | 460 kts | 242° |
| 2026-04-21 19:20 | 43.67011 | -95.56763 | 33728 ft | 461 kts | 242° |
| 2026-04-21 19:20 | 43.65114 | -95.60343 | 33932 ft | 462 kts | 242° |
| 2026-04-21 19:21 | 43.60541 | -95.68949 | 33966 ft | 461 kts | 242° |
| 2026-04-21 19:21 | 43.52791 | -95.83536 | 33914 ft | 478 kts | 240° |
| 2026-04-21 19:21 | 43.44870 | -95.98279 | 33758 ft | 479 kts | 240° |
| 2026-04-21 19:22 | 43.29157 | -96.27646 | 33783 ft | 469 kts | 248° |
| 2026-04-21 19:22 | 43.18514 | -96.59933 | 33806 ft | 465 kts | 252° |
| 2026-04-21 19:23 | 43.07841 | -96.92190 | 33928 ft | 461 kts | 252° |
| 2026-04-21 19:23 | 42.97074 | -97.24301 | 34056 ft | 462 kts | 251° |
| 2026-04-21 19:24 | 42.86154 | -97.56497 | 34050 ft | 468 kts | 251° |
| 2026-04-21 19:24 | 42.75170 | -97.88547 | 33865 ft | 471 kts | 251° |
| 2026-04-21 19:25 | 42.64057 | -98.20572 | 33744 ft | 470 kts | 250° |
| 2026-04-21 19:25 | 42.52878 | -98.52414 | 33918 ft | 464 kts | 249° |
| 2026-04-21 19:26 | 42.48397 | -98.68657 | 33904 ft | 448 kts | 269° |
| 2026-04-21 19:26 | 42.46701 | -98.85559 | 34050 ft | 452 kts | 266° |
| 2026-04-21 19:26 | 42.43141 | -99.19447 | 34020 ft | 455 kts | 266° |
| 2026-04-21 19:27 | 42.40886 | -99.40677 | 33905 ft | 457 kts | 265° |
| 2026-04-21 19:27 | 42.39962 | -99.49196 | 33920 ft | 458 kts | 265° |
| 2026-04-21 19:28 | 42.39031 | -99.57707 | 33916 ft | 457 kts | 265° |
| 2026-04-21 19:28 | 42.38095 | -99.66205 | 33931 ft | 457 kts | 265° |
| 2026-04-21 19:29 | 42.37158 | -99.74690 | 33937 ft | 456 kts | 265° |
| 2026-04-21 19:29 | 42.36218 | -99.83173 | 33943 ft | 456 kts | 265° |
| 2026-04-21 19:30 | 42.35276 | -99.91646 | 33943 ft | 456 kts | 264° |
| 2026-04-21 19:30 | 42.34322 | -100.00112 | 33947 ft | 455 kts | 264° |
| 2026-04-21 19:31 | 42.33358 | -100.08565 | 33938 ft | 455 kts | 264° |
| 2026-04-21 19:31 | 42.32391 | -100.17017 | 33931 ft | 455 kts | 264° |
| 2026-04-21 19:32 | 42.31427 | -100.25465 | 33911 ft | 455 kts | 264° |
| 2026-04-21 19:32 | 42.30450 | -100.33899 | 33906 ft | 455 kts | 264° |
| 2026-04-21 19:33 | 42.29463 | -100.42334 | 33910 ft | 455 kts | 264° |
| 2026-04-21 19:33 | 42.28479 | -100.50706 | 33910 ft | 454 kts | 264° |
| 2026-04-21 19:34 | 42.27483 | -100.59192 | 33906 ft | 454 kts | 263° |
| 2026-04-21 19:34 | 42.26485 | -100.67608 | 33910 ft | 454 kts | 263° |
| 2026-04-21 19:35 | 42.24971 | -100.80229 | 33910 ft | 454 kts | 263° |
| 2026-04-21 19:36 | 42.23958 | -100.88636 | 33904 ft | 454 kts | 263° |
| 2026-04-21 19:36 | 42.22936 | -100.97039 | 33905 ft | 454 kts | 263° |
| 2026-04-21 19:37 | 42.21912 | -101.05381 | 33903 ft | 454 kts | 263° |
| 2026-04-21 19:37 | 42.20881 | -101.13770 | 33902 ft | 454 kts | 263° |
| 2026-04-21 19:38 | 42.19839 | -101.22221 | 33903 ft | 454 kts | 263° |
| 2026-04-21 19:38 | 42.18972 | -101.29190 | 33905 ft | 453 kts | 263° |
| 2026-04-21 19:39 | 42.17744 | -101.38981 | 33911 ft | 453 kts | 262° |
| 2026-04-21 19:39 | 42.16688 | -101.47348 | 33915 ft | 453 kts | 262° |
| 2026-04-21 19:40 | 42.15629 | -101.55701 | 33908 ft | 452 kts | 262° |
| 2026-04-21 19:40 | 42.14561 | -101.64053 | 33908 ft | 452 kts | 262° |
| 2026-04-21 19:41 | 42.13489 | -101.72398 | 33903 ft | 452 kts | 262° |
| 2026-04-21 19:41 | 42.12415 | -101.80679 | 33909 ft | 452 kts | 261° |
| 2026-04-21 19:42 | 42.11332 | -101.89012 | 33911 ft | 452 kts | 261° |
| 2026-04-21 19:42 | 42.10247 | -101.97343 | 33907 ft | 452 kts | 261° |
| 2026-04-21 19:43 | 42.09155 | -102.05669 | 33903 ft | 452 kts | 261° |
| 2026-04-21 19:43 | 42.08055 | -102.13993 | 33904 ft | 452 kts | 261° |
| 2026-04-21 19:44 | 42.06950 | -102.22315 | 33908 ft | 452 kts | 261° |
| 2026-04-21 19:44 | 42.05834 | -102.30627 | 33909 ft | 451 kts | 261° |
| 2026-04-21 19:45 | 42.04716 | -102.38942 | 33924 ft | 451 kts | 261° |
| 2026-04-21 19:45 | 42.03591 | -102.47250 | 33939 ft | 451 kts | 260° |
| 2026-04-21 19:46 | 42.02456 | -102.55550 | 33950 ft | 451 kts | 260° |
| 2026-04-21 19:46 | 42.01324 | -102.63852 | 33970 ft | 451 kts | 260° |
| 2026-04-21 19:47 | 42.00185 | -102.72148 | 33978 ft | 451 kts | 260° |
| 2026-04-21 19:47 | 41.99039 | -102.80440 | 33985 ft | 451 kts | 260° |
| 2026-04-21 19:48 | 41.97885 | -102.88719 | 33983 ft | 451 kts | 259° |
| 2026-04-21 19:48 | 41.96727 | -102.96997 | 33965 ft | 451 kts | 259° |
| 2026-04-21 19:49 | 41.95561 | -103.05268 | 33946 ft | 450 kts | 259° |
| 2026-04-21 19:49 | 41.94387 | -103.13531 | 33908 ft | 450 kts | 259° |
| 2026-04-21 19:50 | 41.93404 | -103.20453 | 33928 ft | 450 kts | 259° |
| 2026-04-21 19:50 | 41.92041 | -103.30054 | 33955 ft | 450 kts | 259° |
| 2026-04-21 19:51 | 41.90861 | -103.38308 | 33973 ft | 450 kts | 259° |
| 2026-04-21 19:51 | 41.89498 | -103.46497 | 33992 ft | 450 kts | 250° |
| 2026-04-21 19:52 | 41.86446 | -103.53799 | 34005 ft | 451 kts | 235° |
| 2026-04-21 19:52 | 41.83404 | -103.59476 | 34001 ft | 451 kts | 235° |
| 2026-04-21 19:53 | 41.79754 | -103.66316 | 34002 ft | 451 kts | 235° |
| 2026-04-21 19:53 | 41.76103 | -103.73163 | 33967 ft | 452 kts | 235° |
| 2026-04-21 19:54 | 41.72439 | -103.80006 | 33937 ft | 453 kts | 235° |
| 2026-04-21 19:54 | 41.68756 | -103.86845 | 33933 ft | 453 kts | 234° |
| 2026-04-21 19:55 | 41.65073 | -103.93681 | 33909 ft | 453 kts | 234° |
| 2026-04-21 19:55 | 41.61394 | -104.00506 | 33907 ft | 452 kts | 234° |
| 2026-04-21 19:56 | 41.57708 | -104.07315 | 33901 ft | 452 kts | 234° |
| 2026-04-21 19:56 | 41.54015 | -104.14116 | 33899 ft | 452 kts | 234° |
| 2026-04-21 19:57 | 41.50322 | -104.20915 | 33892 ft | 453 kts | 234° |
| 2026-04-21 19:57 | 41.46625 | -104.27711 | 33896 ft | 453 kts | 234° |
| 2026-04-21 19:58 | 41.42920 | -104.34501 | 33893 ft | 453 kts | 234° |
| 2026-04-21 19:58 | 41.39212 | -104.41284 | 33894 ft | 453 kts | 234° |
| 2026-04-21 19:59 | 41.35500 | -104.48059 | 33938 ft | 453 kts | 234° |
| 2026-04-21 19:59 | 41.31781 | -104.54817 | 33993 ft | 453 kts | 234° |
| 2026-04-21 20:00 | 41.28054 | -104.61569 | 34043 ft | 453 kts | 234° |
| 2026-04-21 20:00 | 41.24326 | -104.68322 | 34088 ft | 453 kts | 233° |
| 2026-04-21 20:01 | 41.20600 | -104.75071 | 34123 ft | 453 kts | 233° |
| 2026-04-21 20:01 | 41.16860 | -104.81817 | 34101 ft | 454 kts | 233° |
| 2026-04-21 20:02 | 41.13112 | -104.88558 | 34105 ft | 454 kts | 233° |
| 2026-04-21 20:02 | 41.09364 | -104.95291 | 34080 ft | 454 kts | 233° |
| 2026-04-21 20:03 | 41.05608 | -105.02024 | 33918 ft | 454 kts | 233° |
| 2026-04-21 20:03 | 41.01848 | -105.08743 | 33922 ft | 454 kts | 233° |
| 2026-04-21 20:04 | 40.98086 | -105.15460 | 33918 ft | 454 kts | 233° |
| 2026-04-21 20:04 | 40.94319 | -105.22170 | 33921 ft | 455 kts | 233° |
| 2026-04-21 20:05 | 40.90542 | -105.28884 | 33919 ft | 455 kts | 233° |
| 2026-04-21 20:05 | 40.86756 | -105.35580 | 33930 ft | 454 kts | 233° |
| 2026-04-21 20:06 | 40.82979 | -105.42270 | 33951 ft | 454 kts | 233° |
| 2026-04-21 20:06 | 40.79204 | -105.48949 | 33957 ft | 454 kts | 233° |
| 2026-04-21 20:07 | 40.75398 | -105.55660 | 33990 ft | 454 kts | 233° |
| 2026-04-21 20:07 | 40.71607 | -105.62311 | 33988 ft | 453 kts | 232° |
| 2026-04-21 20:08 | 40.67813 | -105.68945 | 34028 ft | 453 kts | 233° |
| 2026-04-21 20:08 | 40.64026 | -105.75564 | 34026 ft | 452 kts | 233° |
| 2026-04-21 20:09 | 40.60247 | -105.82168 | 34042 ft | 452 kts | 233° |
| 2026-04-21 20:09 | 40.56464 | -105.88762 | 34051 ft | 451 kts | 233° |
| 2026-04-21 20:10 | 40.52679 | -105.95346 | 34058 ft | 451 kts | 233° |
| 2026-04-21 20:10 | 40.49038 | -106.02048 | 34055 ft | 451 kts | 238° |
| 2026-04-21 20:11 | 40.45742 | -106.09066 | 34043 ft | 451 kts | 238° |
| 2026-04-21 20:11 | 40.42443 | -106.16076 | 34041 ft | 451 kts | 238° |
| 2026-04-21 20:12 | 40.39135 | -106.23078 | 34028 ft | 452 kts | 238° |
| 2026-04-21 20:12 | 40.35821 | -106.30077 | 34026 ft | 452 kts | 238° |
| 2026-04-21 20:13 | 40.32508 | -106.37074 | 34031 ft | 452 kts | 237° |
| 2026-04-21 20:13 | 40.29195 | -106.44070 | 34034 ft | 452 kts | 237° |
| 2026-04-21 20:14 | 40.25873 | -106.51054 | 34030 ft | 452 kts | 237° |
| 2026-04-21 20:14 | 40.22540 | -106.58017 | 34028 ft | 451 kts | 237° |
| 2026-04-21 20:15 | 40.19202 | -106.64972 | 34030 ft | 451 kts | 237° |
| 2026-04-21 20:15 | 40.15873 | -106.71926 | 34041 ft | 451 kts | 237° |
| 2026-04-21 20:16 | 40.12553 | -106.78866 | 34040 ft | 450 kts | 237° |
| 2026-04-21 20:16 | 40.09229 | -106.85779 | 34027 ft | 449 kts | 237° |
| 2026-04-21 20:17 | 40.05897 | -106.92681 | 34037 ft | 449 kts | 237° |
| 2026-04-21 20:17 | 40.02555 | -106.99570 | 34034 ft | 449 kts | 237° |
| 2026-04-21 20:18 | 39.99777 | -107.05296 | 34049 ft | 449 kts | 237° |
| 2026-04-21 20:18 | 39.95875 | -107.13336 | 34058 ft | 448 kts | 237° |
| 2026-04-21 20:19 | 39.92542 | -107.20197 | 34053 ft | 448 kts | 237° |
| 2026-04-21 20:19 | 39.89208 | -107.27048 | 34053 ft | 447 kts | 237° |
| 2026-04-21 20:20 | 39.85872 | -107.33873 | 34031 ft | 447 kts | 237° |
| 2026-04-21 20:20 | 39.82524 | -107.40687 | 34038 ft | 447 kts | 236° |
| 2026-04-21 20:21 | 39.79175 | -107.47486 | 34013 ft | 446 kts | 236° |
| 2026-04-21 20:21 | 39.75831 | -107.54278 | 34038 ft | 446 kts | 236° |
| 2026-04-21 20:22 | 39.72491 | -107.61063 | 34047 ft | 446 kts | 236° |
| 2026-04-21 20:22 | 39.67467 | -107.71226 | 34080 ft | 446 kts | 236° |
| 2026-04-21 20:23 | 39.64117 | -107.77995 | 34107 ft | 445 kts | 236° |
| 2026-04-21 20:23 | 39.62445 | -107.81367 | 33979 ft | 445 kts | 236° |
| 2026-04-21 20:23 | 39.60769 | -107.84737 | 33964 ft | 444 kts | 236° |
| 2026-04-21 20:24 | 39.57415 | -107.91455 | 33965 ft | 443 kts | 236° |
| 2026-04-21 20:24 | 39.54065 | -107.98167 | 33967 ft | 444 kts | 236° |
| 2026-04-21 20:25 | 39.50711 | -108.04875 | 33969 ft | 444 kts | 236° |
| 2026-04-21 20:25 | 39.47352 | -108.11569 | 33964 ft | 443 kts | 236° |
| 2026-04-21 20:26 | 39.43994 | -108.18264 | 33949 ft | 444 kts | 236° |
| 2026-04-21 20:26 | 39.40632 | -108.24965 | 33951 ft | 444 kts | 236° |
| 2026-04-21 20:27 | 39.37265 | -108.31653 | 33980 ft | 444 kts | 236° |
| 2026-04-21 20:27 | 39.33880 | -108.38325 | 34007 ft | 444 kts | 236° |
| 2026-04-21 20:28 | 39.30500 | -108.44994 | 34042 ft | 444 kts | 235° |
| 2026-04-21 20:28 | 39.27123 | -108.51653 | 34059 ft | 443 kts | 235° |
| 2026-04-21 20:29 | 39.23748 | -108.58295 | 34066 ft | 442 kts | 235° |
| 2026-04-21 20:29 | 39.20371 | -108.64922 | 34064 ft | 442 kts | 235° |
| 2026-04-21 20:30 | 39.16993 | -108.71537 | 34046 ft | 441 kts | 235° |
| 2026-04-21 20:30 | 39.13618 | -108.78142 | 33940 ft | 441 kts | 235° |
| 2026-04-21 20:31 | 39.10240 | -108.84731 | 33939 ft | 441 kts | 235° |
| 2026-04-21 20:31 | 39.07431 | -108.90203 | 33939 ft | 441 kts | 235° |
| 2026-04-21 20:32 | 39.04044 | -108.96774 | 33935 ft | 440 kts | 235° |
| 2026-04-21 20:32 | 39.00656 | -109.03336 | 33931 ft | 440 kts | 234° |
| 2026-04-21 20:33 | 38.97268 | -109.09891 | 33930 ft | 440 kts | 234° |
| 2026-04-21 20:33 | 38.93872 | -109.16450 | 33928 ft | 441 kts | 234° |
| 2026-04-21 20:34 | 38.90471 | -109.23012 | 33916 ft | 442 kts | 234° |
| 2026-04-21 20:34 | 38.87065 | -109.29573 | 33912 ft | 442 kts | 234° |
| 2026-04-21 20:35 | 38.83649 | -109.36136 | 33911 ft | 442 kts | 234° |
| 2026-04-21 20:35 | 38.80222 | -109.42687 | 33913 ft | 442 kts | 234° |
| 2026-04-21 20:36 | 38.76790 | -109.49234 | 33908 ft | 443 kts | 234° |
| 2026-04-21 20:36 | 38.73357 | -109.55775 | 33901 ft | 443 kts | 234° |
| 2026-04-21 20:37 | 38.69925 | -109.62319 | 33902 ft | 443 kts | 234° |
| 2026-04-21 20:37 | 38.66484 | -109.68861 | 33894 ft | 443 kts | 234° |
| 2026-04-21 20:38 | 38.63041 | -109.75398 | 33900 ft | 443 kts | 234° |
| 2026-04-21 20:38 | 38.59588 | -109.81926 | 33900 ft | 443 kts | 234° |
| 2026-04-21 20:39 | 38.56131 | -109.88444 | 33903 ft | 443 kts | 234° |
| 2026-04-21 20:39 | 38.52682 | -109.94952 | 33905 ft | 442 kts | 234° |
| 2026-04-21 20:40 | 38.49234 | -110.01441 | 33895 ft | 442 kts | 234° |
| 2026-04-21 20:40 | 38.45828 | -110.07961 | 33906 ft | 441 kts | 234° |
| 2026-04-21 20:41 | 38.42453 | -110.14496 | 33918 ft | 441 kts | 234° |
| 2026-04-21 20:41 | 38.39076 | -110.21009 | 33919 ft | 440 kts | 234° |
| 2026-04-21 20:42 | 38.35693 | -110.27495 | 33908 ft | 439 kts | 234° |
| 2026-04-21 20:42 | 38.32304 | -110.33959 | 33909 ft | 439 kts | 234° |
| 2026-04-21 20:43 | 38.28913 | -110.40415 | 33913 ft | 438 kts | 234° |
| 2026-04-21 20:43 | 38.25523 | -110.46865 | 33912 ft | 438 kts | 234° |
| 2026-04-21 20:44 | 38.22128 | -110.53308 | 33917 ft | 438 kts | 234° |
| 2026-04-21 20:44 | 38.18735 | -110.59742 | 33915 ft | 438 kts | 234° |
| 2026-04-21 20:45 | 38.15343 | -110.66158 | 33945 ft | 438 kts | 234° |
| 2026-04-21 20:45 | 38.11939 | -110.72580 | 33923 ft | 438 kts | 234° |
| 2026-04-21 20:46 | 38.08527 | -110.79005 | 33905 ft | 439 kts | 234° |
| 2026-04-21 20:46 | 38.05107 | -110.85431 | 33899 ft | 440 kts | 234° |
| 2026-04-21 20:47 | 38.01687 | -110.91860 | 33913 ft | 440 kts | 234° |
| 2026-04-21 20:47 | 37.98256 | -110.98287 | 33921 ft | 440 kts | 234° |
| 2026-04-21 20:48 | 37.94819 | -111.04703 | 33939 ft | 440 kts | 234° |
| 2026-04-21 20:48 | 37.91385 | -111.11114 | 33931 ft | 440 kts | 234° |
| 2026-04-21 20:49 | 37.87946 | -111.17519 | 33951 ft | 439 kts | 234° |
| 2026-04-21 20:49 | 37.84509 | -111.23912 | 33952 ft | 439 kts | 234° |
| 2026-04-21 20:50 | 37.81069 | -111.30288 | 33971 ft | 438 kts | 234° |
| 2026-04-21 20:50 | 37.77634 | -111.36647 | 33972 ft | 438 kts | 234° |
| 2026-04-21 20:51 | 37.74198 | -111.42994 | 33958 ft | 437 kts | 234° |
| 2026-04-21 20:51 | 37.70763 | -111.49334 | 33953 ft | 437 kts | 234° |
| 2026-04-21 20:52 | 37.67328 | -111.55661 | 33958 ft | 437 kts | 234° |
| 2026-04-21 20:52 | 37.63892 | -111.61979 | 33954 ft | 436 kts | 234° |
| 2026-04-21 20:53 | 37.60448 | -111.68287 | 33943 ft | 437 kts | 234° |
| 2026-04-21 20:53 | 37.57001 | -111.74592 | 33961 ft | 437 kts | 234° |
| 2026-04-21 20:54 | 37.53554 | -111.80892 | 33995 ft | 436 kts | 234° |
| 2026-04-21 20:54 | 37.50108 | -111.87172 | 34018 ft | 435 kts | 234° |
| 2026-04-21 20:55 | 37.46575 | -111.93356 | 34001 ft | 435 kts | 233° |
| 2026-04-21 20:55 | 37.42953 | -111.99446 | 33997 ft | 434 kts | 232° |
| 2026-04-21 20:56 | 37.39341 | -112.05539 | 33983 ft | 434 kts | 233° |
| 2026-04-21 20:56 | 37.35755 | -112.11645 | 33954 ft | 434 kts | 233° |
| 2026-04-21 20:57 | 37.32183 | -112.17764 | 33953 ft | 434 kts | 234° |
| 2026-04-21 20:57 | 37.28614 | -112.23856 | 33964 ft | 433 kts | 233° |
| 2026-04-21 20:58 | 37.25040 | -112.29932 | 33967 ft | 432 kts | 233° |
| 2026-04-21 20:58 | 37.21462 | -112.35994 | 33966 ft | 432 kts | 233° |
| 2026-04-21 20:59 | 37.17885 | -112.42043 | 33961 ft | 432 kts | 233° |
| 2026-04-21 20:59 | 37.14313 | -112.48089 | 33964 ft | 431 kts | 234° |
| 2026-04-21 21:00 | 37.10744 | -112.54112 | 33965 ft | 430 kts | 234° |
| 2026-04-21 21:00 | 37.07181 | -112.60112 | 33965 ft | 429 kts | 234° |
| 2026-04-21 21:01 | 37.03619 | -112.66091 | 33990 ft | 428 kts | 234° |
| 2026-04-21 21:01 | 37.00062 | -112.72069 | 34010 ft | 428 kts | 234° |
| 2026-04-21 21:02 | 36.96509 | -112.78044 | 34040 ft | 428 kts | 234° |
| 2026-04-21 21:02 | 36.92963 | -112.83983 | 34087 ft | 425 kts | 233° |
| 2026-04-21 21:03 | 36.89431 | -112.89884 | 34098 ft | 423 kts | 233° |
| 2026-04-21 21:03 | 36.85911 | -112.95745 | 34096 ft | 421 kts | 233° |
| 2026-04-21 21:04 | 36.82401 | -113.01592 | 34071 ft | 420 kts | 233° |
| 2026-04-21 21:04 | 36.78897 | -113.07426 | 34036 ft | 419 kts | 233° |
| 2026-04-21 21:05 | 36.75397 | -113.13236 | 34011 ft | 418 kts | 233° |
| 2026-04-21 21:05 | 36.71917 | -113.19014 | 33969 ft | 416 kts | 233° |
| 2026-04-21 21:06 | 36.68444 | -113.24764 | 33919 ft | 415 kts | 233° |
| 2026-04-21 21:06 | 36.64973 | -113.30491 | 33903 ft | 414 kts | 233° |
| 2026-04-21 21:07 | 36.61518 | -113.36212 | 33903 ft | 413 kts | 234° |
| 2026-04-21 21:07 | 36.58200 | -113.42034 | 33894 ft | 412 kts | 235° |
| 2026-04-21 21:08 | 36.54937 | -113.47887 | 33907 ft | 411 kts | 235° |
| 2026-04-21 21:08 | 36.51662 | -113.53693 | 33899 ft | 409 kts | 235° |
| 2026-04-21 21:09 | 36.48371 | -113.59459 | 33896 ft | 408 kts | 234° |
| 2026-04-21 21:09 | 36.45083 | -113.65210 | 33877 ft | 408 kts | 235° |
| 2026-04-21 21:10 | 36.41800 | -113.70953 | 33878 ft | 408 kts | 235° |
| 2026-04-21 21:10 | 36.38516 | -113.76690 | 33892 ft | 407 kts | 234° |
| 2026-04-21 21:11 | 36.35248 | -113.82394 | 33892 ft | 405 kts | 234° |
| 2026-04-21 21:11 | 36.31993 | -113.88067 | 33879 ft | 403 kts | 234° |
| 2026-04-21 21:12 | 36.29295 | -113.92759 | 33876 ft | 402 kts | 234° |
| 2026-04-21 21:12 | 36.26047 | -113.98388 | 33872 ft | 401 kts | 234° |
| 2026-04-21 21:13 | 36.22800 | -114.03999 | 33856 ft | 401 kts | 234° |
| 2026-04-21 21:13 | 36.19555 | -114.09606 | 33868 ft | 400 kts | 234° |
| 2026-04-21 21:14 | 36.16319 | -114.15195 | 33870 ft | 399 kts | 234° |
| 2026-04-21 21:14 | 36.13089 | -114.20767 | 33857 ft | 398 kts | 234° |
| 2026-04-21 21:15 | 36.09855 | -114.26327 | 33846 ft | 398 kts | 234° |
| 2026-04-21 21:15 | 36.06361 | -114.31625 | 33838 ft | 398 kts | 230° |
| 2026-04-21 21:16 | 36.02677 | -114.36740 | 33832 ft | 398 kts | 229° |
| 2026-04-21 21:16 | 35.98992 | -114.41845 | 33860 ft | 398 kts | 229° |
| 2026-04-21 21:17 | 35.95308 | -114.46935 | 33862 ft | 397 kts | 229° |
| 2026-04-21 21:17 | 35.91631 | -114.52014 | 33872 ft | 396 kts | 229° |
| 2026-04-21 21:18 | 35.87956 | -114.57074 | 33884 ft | 396 kts | 229° |
| 2026-04-21 21:18 | 35.84281 | -114.62133 | 33861 ft | 396 kts | 229° |
| 2026-04-21 21:19 | 35.80607 | -114.67185 | 33888 ft | 396 kts | 229° |
| 2026-04-21 21:19 | 35.76935 | -114.72228 | 33872 ft | 395 kts | 229° |
| 2026-04-21 21:20 | 35.73261 | -114.77265 | 33890 ft | 395 kts | 229° |
| 2026-04-21 21:20 | 35.71446 | -114.79749 | 33902 ft | 383 kts | 229° |
| 2026-04-21 21:20 | 35.69701 | -114.82128 | 33893 ft | 367 kts | 229° |
| 2026-04-21 21:21 | 35.66334 | -114.86719 | 33904 ft | 359 kts | 229° |
| 2026-04-21 21:21 | 35.63000 | -114.91274 | 33896 ft | 358 kts | 229° |
| 2026-04-21 21:22 | 35.59678 | -114.95828 | 33896 ft | 358 kts | 229° |
| 2026-04-21 21:22 | 35.56358 | -115.00374 | 33897 ft | 358 kts | 229° |
| 2026-04-21 21:23 | 35.53033 | -115.04904 | 33935 ft | 356 kts | 229° |
| 2026-04-21 21:23 | 35.49715 | -115.09407 | 33934 ft | 355 kts | 228° |
| 2026-04-21 21:24 | 35.46373 | -115.13798 | 33929 ft | 354 kts | 228° |
| 2026-04-21 21:24 | 35.42986 | -115.18185 | 33902 ft | 354 kts | 228° |
| 2026-04-21 21:25 | 35.39602 | -115.22575 | 33904 ft | 354 kts | 228° |
| 2026-04-21 21:25 | 35.36225 | -115.26971 | 33911 ft | 354 kts | 228° |
| 2026-04-21 21:26 | 35.32848 | -115.31370 | 33910 ft | 354 kts | 228° |
| 2026-04-21 21:26 | 35.29473 | -115.35762 | 33943 ft | 354 kts | 228° |
| 2026-04-21 21:27 | 35.26104 | -115.40136 | 33940 ft | 352 kts | 228° |
| 2026-04-21 21:27 | 35.22743 | -115.44491 | 33938 ft | 352 kts | 228° |
| 2026-04-21 21:28 | 35.19386 | -115.48835 | 33936 ft | 351 kts | 228° |
| 2026-04-21 21:29 | 35.14364 | -115.55337 | 33922 ft | 350 kts | 228° |
| 2026-04-21 21:29 | 35.11012 | -115.59660 | 33895 ft | 351 kts | 228° |
| 2026-04-21 21:30 | 35.07639 | -115.63970 | 33892 ft | 351 kts | 228° |
| 2026-04-21 21:30 | 35.04263 | -115.68277 | 33909 ft | 351 kts | 228° |
| 2026-04-21 21:31 | 35.00897 | -115.72575 | 33908 ft | 350 kts | 228° |
| 2026-04-21 21:31 | 34.97537 | -115.76861 | 33897 ft | 349 kts | 228° |
| 2026-04-21 21:32 | 34.94175 | -115.81141 | 33894 ft | 349 kts | 228° |
| 2026-04-21 21:32 | 34.90839 | -115.85387 | 33884 ft | 349 kts | 228° |
| 2026-04-21 21:33 | 34.87483 | -115.89660 | 33873 ft | 349 kts | 228° |
| 2026-04-21 21:33 | 34.84125 | -115.93927 | 33871 ft | 349 kts | 228° |
| 2026-04-21 21:34 | 34.80762 | -115.98177 | 33896 ft | 348 kts | 228° |
| 2026-04-21 21:34 | 34.77403 | -116.02412 | 33871 ft | 347 kts | 228° |
| 2026-04-21 21:35 | 34.74069 | -116.06658 | 33873 ft | 347 kts | 229° |
| 2026-04-21 21:35 | 34.70746 | -116.10911 | 33872 ft | 347 kts | 228° |
| 2026-04-21 21:36 | 34.67417 | -116.15148 | 33875 ft | 347 kts | 228° |
| 2026-04-21 21:36 | 34.64086 | -116.19373 | 33870 ft | 346 kts | 228° |
| 2026-04-21 21:37 | 34.60752 | -116.23598 | 33870 ft | 347 kts | 228° |
| 2026-04-21 21:37 | 34.57395 | -116.27859 | 33659 ft | 359 kts | 228° |
| 2026-04-21 21:37 | 34.55640 | -116.30088 | 33391 ft | 371 kts | 228° |
| 2026-04-21 21:38 | 34.53847 | -116.32362 | 33139 ft | 374 kts | 228° |
| 2026-04-21 21:38 | 34.52043 | -116.34645 | 32874 ft | 374 kts | 227° |
| 2026-04-21 21:38 | 34.50240 | -116.36917 | 32611 ft | 373 kts | 227° |
| 2026-04-21 21:38 | 34.48442 | -116.39179 | 32363 ft | 372 kts | 227° |
| 2026-04-21 21:39 | 34.46632 | -116.41457 | 32072 ft | 372 kts | 227° |
| 2026-04-21 21:39 | 34.44850 | -116.43699 | 31816 ft | 372 kts | 227° |
| 2026-04-21 21:39 | 34.43059 | -116.45958 | 31571 ft | 371 kts | 229° |
| 2026-04-21 21:39 | 34.41477 | -116.48414 | 31323 ft | 369 kts | 237° |
| 2026-04-21 21:40 | 34.40261 | -116.51148 | 31115 ft | 369 kts | 242° |
| 2026-04-21 21:40 | 34.39126 | -116.53928 | 30872 ft | 368 kts | 242° |
| 2026-04-21 21:40 | 34.37990 | -116.56697 | 30619 ft | 367 kts | 242° |
| 2026-04-21 21:40 | 34.36856 | -116.59454 | 30381 ft | 366 kts | 242° |
| 2026-04-21 21:41 | 34.35724 | -116.62202 | 30148 ft | 365 kts | 241° |
| 2026-04-21 21:41 | 34.34591 | -116.64944 | 29919 ft | 364 kts | 241° |
| 2026-04-21 21:41 | 34.33481 | -116.67628 | 29429 ft | 359 kts | 241° |
| 2026-04-21 21:41 | 34.32378 | -116.70318 | 28868 ft | 355 kts | 242° |
| 2026-04-21 21:42 | 34.31305 | -116.72982 | 28317 ft | 350 kts | 242° |
| 2026-04-21 21:42 | 34.30239 | -116.75651 | 27792 ft | 347 kts | 242° |
| 2026-04-21 21:42 | 34.29211 | -116.78231 | 27262 ft | 344 kts | 242° |
| 2026-04-21 21:42 | 34.28174 | -116.80819 | 26731 ft | 341 kts | 242° |
| 2026-04-21 21:43 | 34.27142 | -116.83385 | 26207 ft | 338 kts | 242° |
| 2026-04-21 21:43 | 34.26117 | -116.85926 | 25694 ft | 335 kts | 242° |
| 2026-04-21 21:43 | 34.25102 | -116.88444 | 25233 ft | 332 kts | 242° |
| 2026-04-21 21:43 | 34.24092 | -116.90945 | 24718 ft | 330 kts | 242° |
| 2026-04-21 21:44 | 34.23089 | -116.93425 | 24255 ft | 327 kts | 242° |
| 2026-04-21 21:44 | 34.22082 | -116.95912 | 23778 ft | 324 kts | 242° |
| 2026-04-21 21:44 | 34.21124 | -116.98357 | 23292 ft | 321 kts | 246° |
| 2026-04-21 21:44 | 34.20421 | -117.00873 | 22862 ft | 319 kts | 249° |
| 2026-04-21 21:45 | 34.19744 | -117.03402 | 22431 ft | 314 kts | 249° |
| 2026-04-21 21:45 | 34.19076 | -117.05891 | 22013 ft | 310 kts | 249° |
| 2026-04-21 21:45 | 34.18413 | -117.08351 | 21585 ft | 306 kts | 249° |
| 2026-04-21 21:45 | 34.17745 | -117.10815 | 21161 ft | 304 kts | 249° |
| 2026-04-21 21:46 | 34.17097 | -117.13195 | 20760 ft | 301 kts | 249° |
| 2026-04-21 21:46 | 34.16443 | -117.15592 | 20334 ft | 301 kts | 249° |
| 2026-04-21 21:46 | 34.15785 | -117.17988 | 19919 ft | 300 kts | 249° |
| 2026-04-21 21:46 | 34.15127 | -117.20378 | 19537 ft | 299 kts | 249° |
| 2026-04-21 21:47 | 34.14459 | -117.22791 | 19088 ft | 298 kts | 249° |
| 2026-04-21 21:47 | 34.13803 | -117.25163 | 18647 ft | 297 kts | 249° |
| 2026-04-21 21:47 | 34.13160 | -117.27492 | 18184 ft | 296 kts | 249° |
| 2026-04-21 21:47 | 34.12513 | -117.29843 | 17729 ft | 294 kts | 249° |
| 2026-04-21 21:48 | 34.11867 | -117.32189 | 17195 ft | 294 kts | 249° |
| 2026-04-21 21:48 | 34.11225 | -117.34524 | 16750 ft | 292 kts | 249° |
| 2026-04-21 21:48 | 34.10591 | -117.36835 | 16327 ft | 289 kts | 249° |
| 2026-04-21 21:48 | 34.09979 | -117.39136 | 15904 ft | 287 kts | 250° |
| 2026-04-21 21:49 | 34.09401 | -117.41434 | 15478 ft | 285 kts | 251° |
| 2026-04-21 21:49 | 34.08836 | -117.43719 | 15080 ft | 284 kts | 251° |
| 2026-04-21 21:49 | 34.08273 | -117.45997 | 14705 ft | 283 kts | 251° |
| 2026-04-21 21:49 | 34.07710 | -117.48268 | 14319 ft | 283 kts | 252° |
| 2026-04-21 21:50 | 34.07145 | -117.50540 | 13888 ft | 283 kts | 252° |
| 2026-04-21 21:50 | 34.06570 | -117.52815 | 13425 ft | 284 kts | 251° |
| 2026-04-21 21:50 | 34.05989 | -117.55089 | 12994 ft | 284 kts | 251° |
| 2026-04-21 21:50 | 34.05407 | -117.57359 | 12568 ft | 283 kts | 251° |
| 2026-04-21 21:51 | 34.04827 | -117.59627 | 12145 ft | 283 kts | 250° |
| 2026-04-21 21:51 | 34.04249 | -117.61890 | 12002 ft | 283 kts | 250° |
| 2026-04-21 21:51 | 34.03668 | -117.64161 | 12007 ft | 284 kts | 250° |
| 2026-04-21 21:51 | 34.03086 | -117.66434 | 12009 ft | 284 kts | 250° |
| 2026-04-21 21:52 | 34.02503 | -117.68711 | 12006 ft | 284 kts | 250° |
| 2026-04-21 21:52 | 34.02090 | -117.71007 | 12006 ft | 275 kts | 260° |
| 2026-04-21 21:52 | 34.01883 | -117.73251 | 12027 ft | 266 kts | 259° |
| 2026-04-21 21:52 | 34.01674 | -117.75459 | 12026 ft | 265 kts | 259° |
| 2026-04-21 21:53 | 34.01460 | -117.77666 | 12028 ft | 265 kts | 259° |
| 2026-04-21 21:53 | 34.01243 | -117.79861 | 12028 ft | 263 kts | 259° |
| 2026-04-21 21:53 | 34.01025 | -117.82051 | 12029 ft | 263 kts | 259° |
| 2026-04-21 21:53 | 34.00809 | -117.84241 | 12028 ft | 263 kts | 259° |
| 2026-04-21 21:54 | 34.00600 | -117.86400 | 11985 ft | 253 kts | 259° |
| 2026-04-21 21:54 | 34.00403 | -117.88457 | 11854 ft | 242 kts | 259° |
| 2026-04-21 21:54 | 34.00213 | -117.90436 | 11597 ft | 237 kts | 259° |
| 2026-04-21 21:54 | 34.00017 | -117.92415 | 10923 ft | 239 kts | 258° |
| 2026-04-21 21:55 | 33.99818 | -117.94412 | 10184 ft | 241 kts | 258° |
| 2026-04-21 21:55 | 33.99616 | -117.96421 | 9532 ft | 241 kts | 259° |
| 2026-04-21 21:55 | 33.99410 | -117.98469 | 8859 ft | 254 kts | 259° |
| 2026-04-21 21:55 | 33.99197 | -118.00590 | 8168 ft | 255 kts | 260° |
| 2026-04-21 21:56 | 33.98985 | -118.02712 | 7485 ft | 254 kts | 261° |
| 2026-04-21 21:56 | 33.98776 | -118.04812 | 6837 ft | 251 kts | 261° |
| 2026-04-21 21:56 | 33.98569 | -118.06893 | 6172 ft | 249 kts | 261° |
| 2026-04-21 21:56 | 33.98362 | -118.08975 | 5483 ft | 251 kts | 261° |
| 2026-04-21 21:57 | 33.98149 | -118.11063 | 4771 ft | 249 kts | 261° |
| 2026-04-21 21:57 | 33.98011 | -118.12429 | 4290 ft | 246 kts | 261° |
| 2026-04-21 21:57 | 33.97756 | -118.15005 | 4040 ft | 216 kts | 261° |
| 2026-04-21 21:57 | 33.97640 | -118.16165 | 3991 ft | 207 kts | 261° |
| 2026-04-21 21:58 | 33.97468 | -118.17870 | 3779 ft | 203 kts | 260° |
| 2026-04-21 21:58 | 33.97305 | -118.19507 | 3546 ft | 189 kts | 259° |
| 2026-04-21 21:58 | 33.97150 | -118.21046 | 3300 ft | 182 kts | 259° |
| 2026-04-21 21:58 | 33.97000 | -118.22536 | 3050 ft | 177 kts | 260° |
| 2026-04-21 21:59 | 33.96854 | -118.23982 | 2818 ft | 170 kts | 257° |
| 2026-04-21 21:59 | 33.96720 | -118.25330 | 2615 ft | 154 kts | 259° |
| 2026-04-21 21:59 | 33.96595 | -118.26568 | 2403 ft | 147 kts | 259° |
| 2026-04-21 21:59 | 33.96474 | -118.27773 | 2197 ft | 143 kts | 258° |
| 2026-04-21 22:00 | 33.96352 | -118.28952 | 2020 ft | 140 kts | 259° |
| 2026-04-21 22:00 | 33.96235 | -118.30116 | 1844 ft | 139 kts | 258° |
| 2026-04-21 22:00 | 33.96116 | -118.31269 | 1671 ft | 140 kts | 258° |
| 2026-04-21 22:00 | 33.95998 | -118.32450 | 1475 ft | 142 kts | 258° |
| 2026-04-21 22:01 | 33.95876 | -118.33639 | 1227 ft | 145 kts | 260° |
| 2026-04-21 22:01 | 33.95755 | -118.34847 | 1054 ft | 146 kts | 257° |
| 2026-04-21 22:01 | 33.95631 | -118.36068 | 827 ft | 147 kts | 260° |
| 2026-04-21 22:01 | 33.95507 | -118.37271 | 623 ft | 144 kts | 260° |
| 2026-04-21 22:02 | 33.95388 | -118.38454 | 412 ft | 140 kts | 260° |
| 2026-04-21 22:02 | 33.95272 | -118.39603 | 261 ft | 136 kts | 258° |
| 2026-04-21 22:02 | 33.95160 | -118.40733 | 134 ft | 132 kts | 258° |
| 2026-04-21 22:02 | 33.95065 | -118.41616 | 126 ft | 71 kts | 263° |
| 2026-04-21 22:03 | 33.95008 | -118.42137 | 126 ft | 58 kts | 260° |
| 2026-04-21 22:03 | 33.94965 | -118.42455 | 126 ft | 32 kts | 253° |
| 2026-04-21 22:03 | 33.94859 | -118.42669 | 123 ft | 24 kts | 230° |
| 2026-04-21 22:03 | 33.94744 | -118.42767 | 124 ft | 19 kts | 199° |
| 2026-04-21 22:04 | 33.94649 | -118.42773 | 125 ft | 11 kts | 147° |
| 2026-04-21 22:04 | 33.94637 | -118.42693 | 125 ft | 9 kts | 83° |
| 2026-04-21 22:04 | 33.94646 | -118.42593 | 123 ft | 20 kts | 85° |
| 2026-04-21 22:04 | 33.94667 | -118.42391 | 126 ft | 25 kts | 82° |
| 2026-04-21 22:05 | 33.94688 | -118.42194 | 124 ft | 22 kts | 83° |
| 2026-04-21 22:05 | 33.94705 | -118.42018 | 124 ft | 20 kts | 83° |
| 2026-04-21 22:05 | 33.94720 | -118.41864 | 126 ft | 18 kts | 83° |
| 2026-04-21 22:05 | 33.94738 | -118.41694 | 126 ft | 20 kts | 83° |
| 2026-04-21 22:06 | 33.94754 | -118.41537 | 126 ft | 18 kts | 82° |
| 2026-04-21 22:06 | 33.94774 | -118.41395 | 123 ft | 20 kts | 77° |
| 2026-04-21 22:06 | 33.94802 | -118.41222 | 122 ft | 20 kts | 83° |
| 2026-04-21 22:06 | 33.94815 | -118.41079 | 126 ft | 15 kts | 83° |
| 2026-04-21 22:07 | 33.94827 | -118.40960 | 124 ft | 13 kts | 83° |
| 2026-04-21 22:07 | 33.94840 | -118.40835 | 126 ft | 18 kts | 84° |
| 2026-04-21 22:07 | 33.94857 | -118.40682 | 126 ft | 15 kts | 82° |
| 2026-04-21 22:07 | 33.94844 | -118.40610 | 122 ft | 7 kts | 137° |
| 2026-04-21 22:08 | 33.94793 | -118.40590 | 123 ft | 9 kts | 168° |
| 2026-04-21 22:08 | 33.94738 | -118.40579 | 123 ft | 7 kts | 172° |
| 2026-04-21 22:08 | 33.94692 | -118.40572 | 122 ft | 6 kts | 173° |
| 2026-04-21 22:08 | 33.94653 | -118.40564 | 124 ft | 5 kts | 161° |
| 2026-04-21 22:09 | 33.94636 | -118.40539 | 122 ft | 3 kts | 111° |
| 2026-04-21 22:09 | 33.94629 | -118.40508 | 121 ft | 7 kts | 104° |
| 2026-04-21 22:09 | 33.94627 | -118.40496 | 122 ft | 1 kts | 103° |
| 2026-04-21 22:09 | 33.94627 | -118.40495 | 122 ft | 0 kts | 103° |